Aeroporto :
LOGIN :

Iscrizione | Disclaimer

   EN    FR    IT 

 










Sommario :    VFR   VFR Marginale   IFR   IFR Intensivo   IFR Molto Intensivo
Visibilità : 
Base nubi : 
>= 8 km
>= 3000ft
5 / 8 km
1000 / 3000 ft
1500m / 5 km
500 / 1000 ft
800 / 1500m
200 / 500 ft
< 800m
< 200 ft
Simboli :   Temporali  Nebbia  Neve Forte  Precipitazioni Forti  Vento > 20 kt
SIGMETs :   Varie  Temporali  Ghiacco  Turbolenza  Onda orograficha  Ceneri Vulcaniche






- Altitudine del aeroporto : 56 ft
- Codice IATA : ILY


EGPI - Islay

ULTIMO METAR :
  • 281220Z AUTO 02014G26KT 320V060 9999 SCT040/// BKN045/// 09/M00 Q1040

METARs OBSOLETI :
  • 281150Z AUTO 02014KT 330V050 9999 BKN042/// 09/00 Q1040
  • 281120Z AUTO 01015KT 330V050 9999 SCT039/// 09/M00 Q1040
  • 281050Z AUTO 01013KT 340V060 9999 FEW043/// 09/00 Q1040
  • 281020Z AUTO 02014KT 340V060 9999 FEW045/// 09/02 Q1040
  • 280950Z 03012KT 340V050 9999 SCT045 09/04 Q1039

TAF TAF EGPI
Valido dal 28 a 12 ore il 28 a 18 ore UTC


281056Z 2812/2818 03014KT 9999 FEW030
TEMPO 2812/2818 04017G27KT



MetMap, La meteo Aeronautica in un colpo d'occhio ! - Copyright ORBIFLY Dicembre 2007 - Disclaimer

ORBIFLY MET'MAP TEAM :

Programmazione e sviluppo : Alexandra Zaïnal
Concezione : Baudouin d'Aumeries
Aiuto per la programmazione : Marc-Olivier Méhu
Supporto tecnico e logistico : Manuel Goepfert
Aiuto per la traduzione : Arnaldo La Scala

Contatto : metmap@orbifly.com




FONTI E CREDITI :

   NOAA